sensor_id;sensor_type;location;lat;lon;timestamp;P1;durP1;ratioP1;P2;durP2;ratioP2
28762;SDS011;15918;51.270;6.522;2022-10-16T00:02:23;6.43;;;3.47;;
28762;SDS011;15918;51.270;6.522;2022-10-16T00:04:49;10.82;;;3.80;;
28762;SDS011;15918;51.270;6.522;2022-10-16T00:07:15;6.50;;;3.35;;
28762;SDS011;15918;51.270;6.522;2022-10-16T00:09:40;4.85;;;3.78;;
28762;SDS011;15918;51.270;6.522;2022-10-16T00:12:06;5.35;;;3.40;;
28762;SDS011;15918;51.270;6.522;2022-10-16T00:14:32;9.48;;;3.60;;
28762;SDS011;15918;51.270;6.522;2022-10-16T00:16:58;7.80;;;3.75;;
28762;SDS011;15918;51.270;6.522;2022-10-16T00:19:23;6.53;;;3.25;;
28762;SDS011;15918;51.270;6.522;2022-10-16T00:21:49;9.45;;;4.13;;
28762;SDS011;15918;51.270;6.522;2022-10-16T00:24:15;5.40;;;3.30;;
28762;SDS011;15918;51.270;6.522;2022-10-16T00:26:40;7.47;;;3.50;;
28762;SDS011;15918;51.270;6.522;2022-10-16T00:29:06;5.20;;;3.30;;
28762;SDS011;15918;51.270;6.522;2022-10-16T00:31:32;9.50;;;3.38;;
28762;SDS011;15918;51.270;6.522;2022-10-16T00:33:58;6.22;;;3.70;;
28762;SDS011;15918;51.270;6.522;2022-10-16T00:36:26;6.60;;;3.55;;
28762;SDS011;15918;51.270;6.522;2022-10-16T00:38:52;4.47;;;3.10;;
28762;SDS011;15918;51.270;6.522;2022-10-16T00:41:20;8.60;;;3.92;;
28762;SDS011;15918;51.270;6.522;2022-10-16T00:43:51;6.65;;;3.38;;
28762;SDS011;15918;51.270;6.522;2022-10-16T00:49:08;4.80;;;3.20;;
28762;SDS011;15918;51.270;6.522;2022-10-16T00:51:39;5.07;;;3.15;;
28762;SDS011;15918;51.270;6.522;2022-10-16T00:54:14;6.75;;;2.97;;
28762;SDS011;15918;51.270;6.522;2022-10-16T00:56:45;8.57;;;2.83;;
28762;SDS011;15918;51.270;6.522;2022-10-16T00:59:14;4.03;;;2.58;;
28762;SDS011;15918;51.270;6.522;2022-10-16T01:01:43;4.22;;;2.47;;
28762;SDS011;15918;51.270;6.522;2022-10-16T01:04:08;4.60;;;2.53;;
28762;SDS011;15918;51.270;6.522;2022-10-16T01:06:36;8.25;;;2.90;;
28762;SDS011;15918;51.270;6.522;2022-10-16T01:09:22;3.33;;;2.78;;
28762;SDS011;15918;51.270;6.522;2022-10-16T01:12:17;2.53;;;2.22;;
28762;SDS011;15918;51.270;6.522;2022-10-16T01:14:59;3.03;;;2.42;;
28762;SDS011;15918;51.270;6.522;2022-10-16T01:17:38;5.43;;;2.38;;
28762;SDS011;15918;51.270;6.522;2022-10-16T01:20:10;4.22;;;2.20;;
28762;SDS011;15918;51.270;6.522;2022-10-16T01:28:32;5.00;;;2.13;;
28762;SDS011;15918;51.270;6.522;2022-10-16T01:31:04;7.75;;;2.42;;
28762;SDS011;15918;51.270;6.522;2022-10-16T01:33:34;2.30;;;1.88;;
28762;SDS011;15918;51.270;6.522;2022-10-16T01:36:10;4.20;;;2.42;;
28762;SDS011;15918;51.270;6.522;2022-10-16T01:38:39;3.13;;;1.88;;
28762;SDS011;15918;51.270;6.522;2022-10-16T01:41:13;2.45;;;2.20;;
28762;SDS011;15918;51.270;6.522;2022-10-16T01:43:43;5.05;;;1.85;;
28762;SDS011;15918;51.270;6.522;2022-10-16T01:46:14;5.63;;;2.20;;
28762;SDS011;15918;51.270;6.522;2022-10-16T01:48:42;3.45;;;2.13;;
28762;SDS011;15918;51.270;6.522;2022-10-16T01:51:09;4.40;;;1.85;;
28762;SDS011;15918;51.270;6.522;2022-10-16T01:53:37;3.90;;;1.80;;
28762;SDS011;15918;51.270;6.522;2022-10-16T01:56:06;4.20;;;1.80;;
28762;SDS011;15918;51.270;6.522;2022-10-16T01:58:34;6.03;;;2.25;;
28762;SDS011;15918;51.270;6.522;2022-10-16T02:01:04;3.38;;;1.73;;
28762;SDS011;15918;51.270;6.522;2022-10-16T02:03:35;3.50;;;1.52;;
28762;SDS011;15918;51.270;6.522;2022-10-16T02:06:06;5.18;;;2.05;;
28762;SDS011;15918;51.270;6.522;2022-10-16T02:08:32;2.80;;;1.58;;
28762;SDS011;15918;51.270;6.522;2022-10-16T02:10:58;4.22;;;1.88;;
28762;SDS011;15918;51.270;6.522;2022-10-16T02:13:27;3.20;;;1.73;;
28762;SDS011;15918;51.270;6.522;2022-10-16T02:15:58;3.63;;;1.90;;
28762;SDS011;15918;51.270;6.522;2022-10-16T02:18:24;3.80;;;1.58;;
28762;SDS011;15918;51.270;6.522;2022-10-16T02:20:58;2.55;;;1.50;;
28762;SDS011;15918;51.270;6.522;2022-10-16T02:23:37;3.03;;;2.03;;
28762;SDS011;15918;51.270;6.522;2022-10-16T02:26:15;3.60;;;1.80;;
28762;SDS011;15918;51.270;6.522;2022-10-16T02:28:47;5.35;;;1.70;;
28762;SDS011;15918;51.270;6.522;2022-10-16T02:31:20;1.38;;;1.23;;
28762;SDS011;15918;51.270;6.522;2022-10-16T02:33:52;5.22;;;1.65;;
28762;SDS011;15918;51.270;6.522;2022-10-16T02:36:19;2.90;;;1.40;;
28762;SDS011;15918;51.270;6.522;2022-10-16T02:38:46;4.22;;;1.30;;
28762;SDS011;15918;51.270;6.522;2022-10-16T02:41:11;1.65;;;1.15;;
28762;SDS011;15918;51.270;6.522;2022-10-16T02:43:37;3.03;;;1.30;;
28762;SDS011;15918;51.270;6.522;2022-10-16T02:46:03;3.05;;;1.45;;
28762;SDS011;15918;51.270;6.522;2022-10-16T02:48:29;3.38;;;1.63;;
28762;SDS011;15918;51.270;6.522;2022-10-16T02:50:54;2.42;;;1.42;;
28762;SDS011;15918;51.270;6.522;2022-10-16T02:53:20;4.13;;;1.38;;
28762;SDS011;15918;51.270;6.522;2022-10-16T02:55:45;3.25;;;1.20;;
28762;SDS011;15918;51.270;6.522;2022-10-16T02:58:11;5.03;;;1.35;;
28762;SDS011;15918;51.270;6.522;2022-10-16T03:00:36;3.78;;;1.30;;
28762;SDS011;15918;51.270;6.522;2022-10-16T03:03:02;2.83;;;1.38;;
28762;SDS011;15918;51.270;6.522;2022-10-16T03:05:28;4.38;;;1.33;;
28762;SDS011;15918;51.270;6.522;2022-10-16T03:07:53;4.05;;;1.60;;
28762;SDS011;15918;51.270;6.522;2022-10-16T03:10:19;2.78;;;1.23;;
28762;SDS011;15918;51.270;6.522;2022-10-16T03:12:44;3.08;;;1.42;;
28762;SDS011;15918;51.270;6.522;2022-10-16T03:15:10;2.67;;;1.50;;
28762;SDS011;15918;51.270;6.522;2022-10-16T03:17:36;6.75;;;1.58;;
28762;SDS011;15918;51.270;6.522;2022-10-16T03:20:01;2.70;;;1.50;;
28762;SDS011;15918;51.270;6.522;2022-10-16T03:22:28;3.97;;;1.38;;
28762;SDS011;15918;51.270;6.522;2022-10-16T03:24:53;2.92;;;1.52;;
28762;SDS011;15918;51.270;6.522;2022-10-16T03:27:19;3.35;;;1.40;;
28762;SDS011;15918;51.270;6.522;2022-10-16T03:29:45;4.88;;;1.45;;
28762;SDS011;15918;51.270;6.522;2022-10-16T03:32:10;3.10;;;1.45;;
28762;SDS011;15918;51.270;6.522;2022-10-16T03:34:36;4.35;;;1.90;;
28762;SDS011;15918;51.270;6.522;2022-10-16T03:37:01;2.85;;;1.23;;
28762;SDS011;15918;51.270;6.522;2022-10-16T03:39:27;2.47;;;1.40;;
28762;SDS011;15918;51.270;6.522;2022-10-16T03:41:53;8.00;;;1.73;;
28762;SDS011;15918;51.270;6.522;2022-10-16T03:44:18;2.08;;;1.27;;
28762;SDS011;15918;51.270;6.522;2022-10-16T03:46:44;2.45;;;1.20;;
28762;SDS011;15918;51.270;6.522;2022-10-16T03:49:09;3.60;;;1.20;;
28762;SDS011;15918;51.270;6.522;2022-10-16T03:51:35;4.72;;;1.40;;
28762;SDS011;15918;51.270;6.522;2022-10-16T03:54:01;5.78;;;1.40;;
28762;SDS011;15918;51.270;6.522;2022-10-16T03:56:26;3.38;;;1.33;;
28762;SDS011;15918;51.270;6.522;2022-10-16T03:58:52;2.22;;;1.30;;
28762;SDS011;15918;51.270;6.522;2022-10-16T04:01:17;2.80;;;1.33;;
28762;SDS011;15918;51.270;6.522;2022-10-16T04:03:43;1.58;;;1.10;;
28762;SDS011;15918;51.270;6.522;2022-10-16T04:06:08;1.73;;;1.20;;
28762;SDS011;15918;51.270;6.522;2022-10-16T04:08:34;9.68;;;1.55;;
28762;SDS011;15918;51.270;6.522;2022-10-16T04:11:01;1.70;;;1.20;;
28762;SDS011;15918;51.270;6.522;2022-10-16T04:13:28;2.17;;;1.30;;
28762;SDS011;15918;51.270;6.522;2022-10-16T04:15:53;3.38;;;1.30;;
28762;SDS011;15918;51.270;6.522;2022-10-16T04:18:19;4.25;;;1.48;;
28762;SDS011;15918;51.270;6.522;2022-10-16T04:20:44;3.80;;;1.40;;
28762;SDS011;15918;51.270;6.522;2022-10-16T04:23:10;1.40;;;1.00;;
28762;SDS011;15918;51.270;6.522;2022-10-16T04:25:36;4.47;;;1.67;;
28762;SDS011;15918;51.270;6.522;2022-10-16T04:28:01;4.38;;;1.10;;
28762;SDS011;15918;51.270;6.522;2022-10-16T04:30:27;2.75;;;1.15;;
28762;SDS011;15918;51.270;6.522;2022-10-16T04:32:53;2.42;;;0.98;;
28762;SDS011;15918;51.270;6.522;2022-10-16T04:35:19;2.95;;;1.25;;
28762;SDS011;15918;51.270;6.522;2022-10-16T04:37:46;2.45;;;1.48;;
28762;SDS011;15918;51.270;6.522;2022-10-16T04:40:12;1.75;;;1.10;;
28762;SDS011;15918;51.270;6.522;2022-10-16T04:42:38;4.03;;;1.02;;
28762;SDS011;15918;51.270;6.522;2022-10-16T04:45:04;1.88;;;1.20;;
28762;SDS011;15918;51.270;6.522;2022-10-16T04:47:30;2.33;;;1.10;;
28762;SDS011;15918;51.270;6.522;2022-10-16T04:49:56;1.85;;;0.80;;
28762;SDS011;15918;51.270;6.522;2022-10-16T04:52:22;1.40;;;1.13;;
28762;SDS011;15918;51.270;6.522;2022-10-16T04:54:49;3.25;;;0.90;;
28762;SDS011;15918;51.270;6.522;2022-10-16T04:57:15;4.20;;;1.20;;
28762;SDS011;15918;51.270;6.522;2022-10-16T04:59:41;3.72;;;1.38;;
28762;SDS011;15918;51.270;6.522;2022-10-16T05:02:07;2.30;;;1.27;;
28762;SDS011;15918;51.270;6.522;2022-10-16T05:04:32;1.98;;;1.17;;
28762;SDS011;15918;51.270;6.522;2022-10-16T05:06:58;4.30;;;1.17;;
28762;SDS011;15918;51.270;6.522;2022-10-16T05:09:23;4.18;;;1.27;;
28762;SDS011;15918;51.270;6.522;2022-10-16T05:11:49;2.55;;;1.17;;
28762;SDS011;15918;51.270;6.522;2022-10-16T05:14:15;1.77;;;1.20;;
28762;SDS011;15918;51.270;6.522;2022-10-16T05:16:40;4.88;;;1.38;;
28762;SDS011;15918;51.270;6.522;2022-10-16T05:19:06;1.55;;;1.05;;
28762;SDS011;15918;51.270;6.522;2022-10-16T05:21:31;2.45;;;1.00;;
28762;SDS011;15918;51.270;6.522;2022-10-16T05:23:57;1.58;;;1.00;;
28762;SDS011;15918;51.270;6.522;2022-10-16T05:26:22;3.45;;;1.35;;
28762;SDS011;15918;51.270;6.522;2022-10-16T05:28:48;3.00;;;1.30;;
28762;SDS011;15918;51.270;6.522;2022-10-16T05:31:14;1.23;;;1.13;;
28762;SDS011;15918;51.270;6.522;2022-10-16T05:33:40;4.57;;;1.58;;
28762;SDS011;15918;51.270;6.522;2022-10-16T05:36:07;2.42;;;0.98;;
28762;SDS011;15918;51.270;6.522;2022-10-16T05:38:34;1.40;;;1.20;;
28762;SDS011;15918;51.270;6.522;2022-10-16T05:41:00;1.50;;;1.20;;
28762;SDS011;15918;51.270;6.522;2022-10-16T05:43:27;2.47;;;1.70;;
28762;SDS011;15918;51.270;6.522;2022-10-16T05:45:56;5.78;;;1.90;;
28762;SDS011;15918;51.270;6.522;2022-10-16T05:48:23;1.92;;;1.45;;
28762;SDS011;15918;51.270;6.522;2022-10-16T05:50:55;6.60;;;1.85;;
28762;SDS011;15918;51.270;6.522;2022-10-16T05:53:23;2.17;;;1.40;;
28762;SDS011;15918;51.270;6.522;2022-10-16T05:55:56;4.80;;;1.50;;
28762;SDS011;15918;51.270;6.522;2022-10-16T05:58:22;12.50;;;2.03;;
28762;SDS011;15918;51.270;6.522;2022-10-16T06:00:57;3.35;;;1.65;;
28762;SDS011;15918;51.270;6.522;2022-10-16T06:03:24;2.83;;;1.48;;
28762;SDS011;15918;51.270;6.522;2022-10-16T06:05:50;2.80;;;1.67;;
28762;SDS011;15918;51.270;6.522;2022-10-16T06:08:16;3.75;;;1.77;;
28762;SDS011;15918;51.270;6.522;2022-10-16T06:10:43;3.90;;;1.38;;
28762;SDS011;15918;51.270;6.522;2022-10-16T06:13:10;4.32;;;1.58;;
28762;SDS011;15918;51.270;6.522;2022-10-16T06:15:36;3.63;;;1.83;;
28762;SDS011;15918;51.270;6.522;2022-10-16T06:18:03;3.22;;;1.92;;
28762;SDS011;15918;51.270;6.522;2022-10-16T06:20:30;4.15;;;1.45;;
28762;SDS011;15918;51.270;6.522;2022-10-16T06:22:56;3.40;;;1.35;;
28762;SDS011;15918;51.270;6.522;2022-10-16T06:25:22;3.88;;;1.77;;
28762;SDS011;15918;51.270;6.522;2022-10-16T06:27:47;2.92;;;1.60;;
28762;SDS011;15918;51.270;6.522;2022-10-16T06:30:13;2.33;;;1.60;;
28762;SDS011;15918;51.270;6.522;2022-10-16T06:32:39;4.68;;;1.83;;
28762;SDS011;15918;51.270;6.522;2022-10-16T06:35:04;3.42;;;1.55;;
28762;SDS011;15918;51.270;6.522;2022-10-16T06:37:30;4.13;;;1.70;;
28762;SDS011;15918;51.270;6.522;2022-10-16T06:39:55;3.83;;;1.50;;
28762;SDS011;15918;51.270;6.522;2022-10-16T06:42:21;2.78;;;1.67;;
28762;SDS011;15918;51.270;6.522;2022-10-16T06:44:47;3.35;;;1.80;;
28762;SDS011;15918;51.270;6.522;2022-10-16T06:47:12;2.70;;;2.10;;
28762;SDS011;15918;51.270;6.522;2022-10-16T06:49:38;7.53;;;2.00;;
28762;SDS011;15918;51.270;6.522;2022-10-16T06:52:03;4.13;;;1.92;;
28762;SDS011;15918;51.270;6.522;2022-10-16T06:54:29;2.70;;;1.90;;
28762;SDS011;15918;51.270;6.522;2022-10-16T06:56:55;4.53;;;2.03;;
28762;SDS011;15918;51.270;6.522;2022-10-16T06:59:21;4.93;;;1.92;;
28762;SDS011;15918;51.270;6.522;2022-10-16T07:01:47;6.57;;;2.08;;
28762;SDS011;15918;51.270;6.522;2022-10-16T07:04:12;3.00;;;1.98;;
28762;SDS011;15918;51.270;6.522;2022-10-16T07:06:38;3.00;;;2.10;;
28762;SDS011;15918;51.270;6.522;2022-10-16T07:09:05;4.43;;;2.33;;
28762;SDS011;15918;51.270;6.522;2022-10-16T07:11:32;3.33;;;2.30;;
28762;SDS011;15918;51.270;6.522;2022-10-16T07:13:58;2.42;;;2.05;;
28762;SDS011;15918;51.270;6.522;2022-10-16T07:16:28;4.30;;;2.20;;
28762;SDS011;15918;51.270;6.522;2022-10-16T07:18:57;3.85;;;2.00;;
28762;SDS011;15918;51.270;6.522;2022-10-16T07:21:25;2.30;;;2.10;;
28762;SDS011;15918;51.270;6.522;2022-10-16T07:23:54;2.58;;;2.15;;
28762;SDS011;15918;51.270;6.522;2022-10-16T07:26:22;4.53;;;2.10;;
28762;SDS011;15918;51.270;6.522;2022-10-16T07:28:48;3.88;;;2.03;;
28762;SDS011;15918;51.270;6.522;2022-10-16T07:31:15;2.30;;;1.80;;
28762;SDS011;15918;51.270;6.522;2022-10-16T07:33:42;4.15;;;2.00;;
28762;SDS011;15918;51.270;6.522;2022-10-16T07:36:10;4.85;;;2.03;;
28762;SDS011;15918;51.270;6.522;2022-10-16T07:38:37;3.45;;;2.35;;
28762;SDS011;15918;51.270;6.522;2022-10-16T07:41:04;3.63;;;1.95;;
28762;SDS011;15918;51.270;6.522;2022-10-16T07:43:31;5.82;;;2.47;;
28762;SDS011;15918;51.270;6.522;2022-10-16T07:45:58;3.10;;;2.10;;
28762;SDS011;15918;51.270;6.522;2022-10-16T07:48:28;3.92;;;2.47;;
28762;SDS011;15918;51.270;6.522;2022-10-16T07:50:58;2.80;;;1.83;;
28762;SDS011;15918;51.270;6.522;2022-10-16T07:53:27;2.50;;;1.80;;
28762;SDS011;15918;51.270;6.522;2022-10-16T07:56:00;4.85;;;2.40;;
28762;SDS011;15918;51.270;6.522;2022-10-16T07:58:27;4.50;;;2.25;;
28762;SDS011;15918;51.270;6.522;2022-10-16T08:00:53;4.28;;;2.10;;
28762;SDS011;15918;51.270;6.522;2022-10-16T08:03:19;3.67;;;2.47;;
28762;SDS011;15918;51.270;6.522;2022-10-16T08:05:44;3.85;;;2.00;;
28762;SDS011;15918;51.270;6.522;2022-10-16T08:08:13;4.20;;;2.15;;
28762;SDS011;15918;51.270;6.522;2022-10-16T08:10:40;5.43;;;2.50;;
28762;SDS011;15918;51.270;6.522;2022-10-16T08:13:06;3.92;;;2.17;;
28762;SDS011;15918;51.270;6.522;2022-10-16T08:15:32;2.78;;;2.10;;
28762;SDS011;15918;51.270;6.522;2022-10-16T08:17:58;2.83;;;2.13;;
28762;SDS011;15918;51.270;6.522;2022-10-16T08:20:25;4.82;;;2.00;;
28762;SDS011;15918;51.270;6.522;2022-10-16T08:22:52;3.10;;;2.10;;
28762;SDS011;15918;51.270;6.522;2022-10-16T08:25:18;3.47;;;2.03;;
28762;SDS011;15918;51.270;6.522;2022-10-16T08:27:44;2.78;;;2.10;;
28762;SDS011;15918;51.270;6.522;2022-10-16T08:30:10;2.95;;;2.00;;
28762;SDS011;15918;51.270;6.522;2022-10-16T08:32:35;3.17;;;2.13;;
28762;SDS011;15918;51.270;6.522;2022-10-16T08:35:01;5.70;;;1.85;;
28762;SDS011;15918;51.270;6.522;2022-10-16T08:37:30;2.08;;;1.90;;
28762;SDS011;15918;51.270;6.522;2022-10-16T08:39:56;2.00;;;1.80;;
28762;SDS011;15918;51.270;6.522;2022-10-16T08:42:31;3.00;;;2.03;;
28762;SDS011;15918;51.270;6.522;2022-10-16T08:45:14;3.47;;;1.92;;
28762;SDS011;15918;51.270;6.522;2022-10-16T08:50:28;2.55;;;1.60;;
28762;SDS011;15918;51.270;6.522;2022-10-16T08:52:56;2.10;;;1.55;;
28762;SDS011;15918;51.270;6.522;2022-10-16T08:57:51;3.47;;;2.05;;
28762;SDS011;15918;51.270;6.522;2022-10-16T09:00:16;2.75;;;1.40;;
28762;SDS011;15918;51.270;6.522;2022-10-16T09:02:48;2.00;;;1.25;;
28762;SDS011;15918;51.270;6.522;2022-10-16T09:05:28;3.80;;;1.60;;
28762;SDS011;15918;51.270;6.522;2022-10-16T09:13:27;3.28;;;1.63;;
28762;SDS011;15918;51.270;6.522;2022-10-16T09:18:52;3.22;;;1.50;;
28762;SDS011;15918;51.270;6.522;2022-10-16T09:21:30;4.00;;;1.60;;
28762;SDS011;15918;51.270;6.522;2022-10-16T09:23:58;4.03;;;1.60;;
28762;SDS011;15918;51.270;6.522;2022-10-16T09:26:29;5.57;;;1.50;;
28762;SDS011;15918;51.270;6.522;2022-10-16T09:28:55;4.65;;;1.17;;
28762;SDS011;15918;51.270;6.522;2022-10-16T09:31:21;3.58;;;1.65;;
28762;SDS011;15918;51.270;6.522;2022-10-16T09:33:49;6.32;;;1.50;;
28762;SDS011;15918;51.270;6.522;2022-10-16T09:36:20;1.63;;;1.15;;
28762;SDS011;15918;51.270;6.522;2022-10-16T09:38:48;3.13;;;1.33;;
28762;SDS011;15918;51.270;6.522;2022-10-16T09:41:16;2.38;;;1.02;;
28762;SDS011;15918;51.270;6.522;2022-10-16T09:43:54;4.32;;;1.70;;
28762;SDS011;15918;51.270;6.522;2022-10-16T09:46:32;4.97;;;1.40;;
28762;SDS011;15918;51.270;6.522;2022-10-16T09:49:00;6.00;;;1.48;;
28762;SDS011;15918;51.270;6.522;2022-10-16T09:56:35;4.70;;;1.35;;
28762;SDS011;15918;51.270;6.522;2022-10-16T09:59:08;2.67;;;1.30;;
28762;SDS011;15918;51.270;6.522;2022-10-16T10:01:36;4.47;;;1.20;;
28762;SDS011;15918;51.270;6.522;2022-10-16T10:04:04;3.25;;;1.45;;
28762;SDS011;15918;51.270;6.522;2022-10-16T10:06:32;4.22;;;1.65;;
28762;SDS011;15918;51.270;6.522;2022-10-16T10:11:37;3.33;;;1.27;;
28762;SDS011;15918;51.270;6.522;2022-10-16T10:14:24;3.50;;;1.10;;
28762;SDS011;15918;51.270;6.522;2022-10-16T10:17:02;3.75;;;1.33;;
28762;SDS011;15918;51.270;6.522;2022-10-16T10:22:31;3.00;;;1.13;;
28762;SDS011;15918;51.270;6.522;2022-10-16T10:27:49;6.15;;;1.25;;
28762;SDS011;15918;51.270;6.522;2022-10-16T10:38:43;3.88;;;1.50;;
28762;SDS011;15918;51.270;6.522;2022-10-16T10:50:02;4.57;;;1.45;;
28762;SDS011;15918;51.270;6.522;2022-10-16T10:52:36;5.32;;;1.13;;
28762;SDS011;15918;51.270;6.522;2022-10-16T11:03:42;5.22;;;1.42;;
28762;SDS011;15918;51.270;6.522;2022-10-16T11:06:12;5.20;;;1.52;;
28762;SDS011;15918;51.270;6.522;2022-10-16T11:16:55;3.67;;;1.20;;
28762;SDS011;15918;51.270;6.522;2022-10-16T11:19:25;4.82;;;1.52;;
28762;SDS011;15918;51.270;6.522;2022-10-16T11:22:04;3.67;;;1.50;;
28762;SDS011;15918;51.270;6.522;2022-10-16T11:27:08;3.08;;;1.20;;
28762;SDS011;15918;51.270;6.522;2022-10-16T11:29:44;3.08;;;1.25;;
28762;SDS011;15918;51.270;6.522;2022-10-16T11:32:35;4.93;;;1.23;;
28762;SDS011;15918;51.270;6.522;2022-10-16T11:35:23;2.65;;;1.23;;
28762;SDS011;15918;51.270;6.522;2022-10-16T11:41:15;2.85;;;1.15;;
28762;SDS011;15918;51.270;6.522;2022-10-16T11:44:12;3.30;;;1.55;;
28762;SDS011;15918;51.270;6.522;2022-10-16T11:46:40;1.52;;;1.08;;
28762;SDS011;15918;51.270;6.522;2022-10-16T11:49:30;8.02;;;1.60;;
28762;SDS011;15918;51.270;6.522;2022-10-16T11:57:35;3.35;;;1.45;;
28762;SDS011;15918;51.270;6.522;2022-10-16T12:00:09;2.08;;;1.20;;
28762;SDS011;15918;51.270;6.522;2022-10-16T12:06:13;3.80;;;1.05;;
28762;SDS011;15918;51.270;6.522;2022-10-16T12:08:54;4.32;;;1.40;;
28762;SDS011;15918;51.270;6.522;2022-10-16T12:14:03;2.97;;;1.13;;
28762;SDS011;15918;51.270;6.522;2022-10-16T12:16:31;2.78;;;0.90;;
28762;SDS011;15918;51.270;6.522;2022-10-16T12:19:13;4.97;;;1.63;;
28762;SDS011;15918;51.270;6.522;2022-10-16T12:21:40;3.83;;;1.00;;
28762;SDS011;15918;51.270;6.522;2022-10-16T12:24:18;7.22;;;1.27;;
28762;SDS011;15918;51.270;6.522;2022-10-16T12:26:51;3.60;;;1.38;;
28762;SDS011;15918;51.270;6.522;2022-10-16T12:29:28;2.03;;;1.08;;
28762;SDS011;15918;51.270;6.522;2022-10-16T12:32:06;4.43;;;1.25;;
28762;SDS011;15918;51.270;6.522;2022-10-16T12:34:50;4.90;;;1.10;;
28762;SDS011;15918;51.270;6.522;2022-10-16T12:37:20;6.13;;;0.90;;
28762;SDS011;15918;51.270;6.522;2022-10-16T12:39:48;3.72;;;1.33;;
28762;SDS011;15918;51.270;6.522;2022-10-16T12:42:20;3.97;;;1.23;;
28762;SDS011;15918;51.270;6.522;2022-10-16T12:44:52;3.78;;;1.23;;
28762;SDS011;15918;51.270;6.522;2022-10-16T12:47:38;2.80;;;1.02;;
28762;SDS011;15918;51.270;6.522;2022-10-16T12:50:25;5.60;;;1.38;;
28762;SDS011;15918;51.270;6.522;2022-10-16T12:52:51;3.22;;;1.35;;
28762;SDS011;15918;51.270;6.522;2022-10-16T12:55:18;6.80;;;1.30;;
28762;SDS011;15918;51.270;6.522;2022-10-16T12:57:55;4.97;;;1.40;;
28762;SDS011;15918;51.270;6.522;2022-10-16T13:00:32;3.53;;;1.10;;
28762;SDS011;15918;51.270;6.522;2022-10-16T13:08:41;2.38;;;1.20;;
28762;SDS011;15918;51.270;6.522;2022-10-16T13:11:16;5.10;;;1.33;;
28762;SDS011;15918;51.270;6.522;2022-10-16T13:22:08;3.35;;;1.20;;
28762;SDS011;15918;51.270;6.522;2022-10-16T13:28:05;3.90;;;1.20;;
28762;SDS011;15918;51.270;6.522;2022-10-16T13:30:40;1.63;;;1.05;;
28762;SDS011;15918;51.270;6.522;2022-10-16T13:33:15;3.35;;;1.27;;
28762;SDS011;15918;51.270;6.522;2022-10-16T13:35:49;2.78;;;1.13;;
28762;SDS011;15918;51.270;6.522;2022-10-16T13:38:23;2.78;;;1.00;;
28762;SDS011;15918;51.270;6.522;2022-10-16T13:43:29;3.00;;;1.15;;
28762;SDS011;15918;51.270;6.522;2022-10-16T13:46:12;5.57;;;0.98;;
28762;SDS011;15918;51.270;6.522;2022-10-16T13:48:39;1.70;;;0.88;;
28762;SDS011;15918;51.270;6.522;2022-10-16T13:53:38;2.72;;;1.35;;
28762;SDS011;15918;51.270;6.522;2022-10-16T13:56:06;1.30;;;0.88;;
28762;SDS011;15918;51.270;6.522;2022-10-16T13:58:35;2.72;;;1.17;;
28762;SDS011;15918;51.270;6.522;2022-10-16T14:01:43;2.00;;;1.02;;
28762;SDS011;15918;51.270;6.522;2022-10-16T14:03:50;2.30;;;1.00;;
28762;SDS011;15918;51.270;6.522;2022-10-16T14:06:17;2.60;;;1.00;;
28762;SDS011;15918;51.270;6.522;2022-10-16T14:08:50;3.15;;;0.98;;
28762;SDS011;15918;51.270;6.522;2022-10-16T14:11:23;1.02;;;0.95;;
28762;SDS011;15918;51.270;6.522;2022-10-16T14:13:50;2.20;;;1.02;;
28762;SDS011;15918;51.270;6.522;2022-10-16T14:16:20;2.53;;;0.88;;
28762;SDS011;15918;51.270;6.522;2022-10-16T14:18:59;4.85;;;1.60;;
28762;SDS011;15918;51.270;6.522;2022-10-16T14:21:31;3.00;;;1.50;;
28762;SDS011;15918;51.270;6.522;2022-10-16T14:23:58;2.22;;;1.00;;
28762;SDS011;15918;51.270;6.522;2022-10-16T14:26:27;1.48;;;0.85;;
28762;SDS011;15918;51.270;6.522;2022-10-16T14:29:12;1.60;;;1.00;;
28762;SDS011;15918;51.270;6.522;2022-10-16T14:31:39;2.45;;;1.00;;
28762;SDS011;15918;51.270;6.522;2022-10-16T14:36:53;5.10;;;1.20;;
28762;SDS011;15918;51.270;6.522;2022-10-16T14:39:20;2.35;;;1.10;;
28762;SDS011;15918;51.270;6.522;2022-10-16T14:41:48;3.50;;;0.90;;
28762;SDS011;15918;51.270;6.522;2022-10-16T14:44:17;2.03;;;0.90;;
28762;SDS011;15918;51.270;6.522;2022-10-16T14:46:43;2.20;;;1.00;;
28762;SDS011;15918;51.270;6.522;2022-10-16T14:51:39;3.13;;;1.40;;
28762;SDS011;15918;51.270;6.522;2022-10-16T14:54:07;4.18;;;1.25;;
28762;SDS011;15918;51.270;6.522;2022-10-16T14:56:55;4.18;;;1.20;;
28762;SDS011;15918;51.270;6.522;2022-10-16T14:59:25;2.30;;;1.45;;
28762;SDS011;15918;51.270;6.522;2022-10-16T15:01:55;2.35;;;1.40;;
28762;SDS011;15918;51.270;6.522;2022-10-16T15:04:20;3.58;;;1.20;;
28762;SDS011;15918;51.270;6.522;2022-10-16T15:06:46;2.17;;;1.10;;
28762;SDS011;15918;51.270;6.522;2022-10-16T15:09:12;2.53;;;1.13;;
28762;SDS011;15918;51.270;6.522;2022-10-16T15:11:37;2.33;;;1.20;;
28762;SDS011;15918;51.270;6.522;2022-10-16T15:14:03;2.55;;;1.25;;
28762;SDS011;15918;51.270;6.522;2022-10-16T15:16:30;5.05;;;1.23;;
28762;SDS011;15918;51.270;6.522;2022-10-16T15:18:56;4.47;;;1.10;;
28762;SDS011;15918;51.270;6.522;2022-10-16T15:23:53;1.50;;;1.00;;
28762;SDS011;15918;51.270;6.522;2022-10-16T15:26:19;2.13;;;1.00;;
28762;SDS011;15918;51.270;6.522;2022-10-16T15:28:45;2.90;;;1.13;;
28762;SDS011;15918;51.270;6.522;2022-10-16T15:31:10;2.20;;;1.00;;
28762;SDS011;15918;51.270;6.522;2022-10-16T15:33:36;1.15;;;0.95;;
28762;SDS011;15918;51.270;6.522;2022-10-16T15:36:02;0.95;;;0.85;;
28762;SDS011;15918;51.270;6.522;2022-10-16T15:38:28;4.20;;;1.10;;
28762;SDS011;15918;51.270;6.522;2022-10-16T15:40:55;3.97;;;1.33;;
28762;SDS011;15918;51.270;6.522;2022-10-16T15:43:21;3.67;;;1.23;;
28762;SDS011;15918;51.270;6.522;2022-10-16T15:45:58;2.35;;;1.15;;
28762;SDS011;15918;51.270;6.522;2022-10-16T15:48:26;1.88;;;1.27;;
28762;SDS011;15918;51.270;6.522;2022-10-16T15:50:52;2.20;;;0.95;;
28762;SDS011;15918;51.270;6.522;2022-10-16T15:53:17;2.65;;;1.20;;
28762;SDS011;15918;51.270;6.522;2022-10-16T15:55:43;4.15;;;1.30;;
28762;SDS011;15918;51.270;6.522;2022-10-16T15:58:08;4.30;;;1.67;;
28762;SDS011;15918;51.270;6.522;2022-10-16T16:00:34;2.25;;;1.20;;
28762;SDS011;15918;51.270;6.522;2022-10-16T16:02:59;2.00;;;1.00;;
28762;SDS011;15918;51.270;6.522;2022-10-16T16:05:25;2.15;;;1.25;;
28762;SDS011;15918;51.270;6.522;2022-10-16T16:07:52;5.50;;;1.85;;
28762;SDS011;15918;51.270;6.522;2022-10-16T16:10:17;2.22;;;1.48;;
28762;SDS011;15918;51.270;6.522;2022-10-16T16:12:46;6.78;;;1.50;;
28762;SDS011;15918;51.270;6.522;2022-10-16T16:15:16;4.68;;;1.90;;
28762;SDS011;15918;51.270;6.522;2022-10-16T16:17:43;3.78;;;1.40;;
28762;SDS011;15918;51.270;6.522;2022-10-16T16:20:09;2.22;;;1.60;;
28762;SDS011;15918;51.270;6.522;2022-10-16T16:22:35;3.67;;;1.88;;
28762;SDS011;15918;51.270;6.522;2022-10-16T16:25:01;4.70;;;1.75;;
28762;SDS011;15918;51.270;6.522;2022-10-16T16:27:27;4.65;;;1.90;;
28762;SDS011;15918;51.270;6.522;2022-10-16T16:29:54;2.53;;;1.45;;
28762;SDS011;15918;51.270;6.522;2022-10-16T16:32:20;3.47;;;1.30;;
28762;SDS011;15918;51.270;6.522;2022-10-16T16:34:46;3.60;;;1.70;;
28762;SDS011;15918;51.270;6.522;2022-10-16T16:37:12;2.90;;;1.67;;
28762;SDS011;15918;51.270;6.522;2022-10-16T16:39:38;2.92;;;1.70;;
28762;SDS011;15918;51.270;6.522;2022-10-16T16:42:03;3.83;;;1.50;;
28762;SDS011;15918;51.270;6.522;2022-10-16T16:44:31;2.38;;;1.98;;
28762;SDS011;15918;51.270;6.522;2022-10-16T16:46:57;4.57;;;2.40;;
28762;SDS011;15918;51.270;6.522;2022-10-16T16:49:23;3.38;;;2.05;;
28762;SDS011;15918;51.270;6.522;2022-10-16T16:51:49;2.70;;;2.08;;
28762;SDS011;15918;51.270;6.522;2022-10-16T16:54:14;2.88;;;2.10;;
28762;SDS011;15918;51.270;6.522;2022-10-16T16:56:41;3.20;;;2.60;;